sensor_id;sensor_type;location;lat;lon;timestamp;temperature;humidity
71994;DHT22;59861;50.268;8.648;2023-05-27T00:02:21;17.50;69.10
71994;DHT22;59861;50.268;8.648;2023-05-27T00:04:48;17.50;69.10
71994;DHT22;59861;50.268;8.648;2023-05-27T00:07:15;17.50;69.00
71994;DHT22;59861;50.268;8.648;2023-05-27T00:09:42;17.50;69.10
71994;DHT22;59861;50.268;8.648;2023-05-27T00:12:09;17.40;68.90
71994;DHT22;59861;50.268;8.648;2023-05-27T00:14:35;17.40;69.00
71994;DHT22;59861;50.268;8.648;2023-05-27T00:17:02;17.40;69.00
71994;DHT22;59861;50.268;8.648;2023-05-27T00:19:30;17.40;68.90
71994;DHT22;59861;50.268;8.648;2023-05-27T00:21:56;17.40;68.90
71994;DHT22;59861;50.268;8.648;2023-05-27T00:24:23;17.40;68.90
71994;DHT22;59861;50.268;8.648;2023-05-27T00:26:50;17.40;69.80
71994;DHT22;59861;50.268;8.648;2023-05-27T00:29:17;17.40;68.90
71994;DHT22;59861;50.268;8.648;2023-05-27T00:31:44;17.40;68.90
71994;DHT22;59861;50.268;8.648;2023-05-27T00:34:11;17.40;68.90
71994;DHT22;59861;50.268;8.648;2023-05-27T00:36:38;17.40;68.90
71994;DHT22;59861;50.268;8.648;2023-05-27T00:39:05;17.40;68.90
71994;DHT22;59861;50.268;8.648;2023-05-27T00:41:32;17.40;69.00
71994;DHT22;59861;50.268;8.648;2023-05-27T00:44:01;17.40;69.00
71994;DHT22;59861;50.268;8.648;2023-05-27T00:46:29;17.40;69.00
71994;DHT22;59861;50.268;8.648;2023-05-27T00:48:55;17.40;69.00
71994;DHT22;59861;50.268;8.648;2023-05-27T00:51:22;17.40;69.00
71994;DHT22;59861;50.268;8.648;2023-05-27T00:53:50;17.40;69.00
71994;DHT22;59861;50.268;8.648;2023-05-27T00:56:17;17.40;69.00
71994;DHT22;59861;50.268;8.648;2023-05-27T00:58:43;17.40;69.00
71994;DHT22;59861;50.268;8.648;2023-05-27T01:01:10;17.40;69.00
71994;DHT22;59861;50.268;8.648;2023-05-27T01:03:37;17.40;69.00
71994;DHT22;59861;50.268;8.648;2023-05-27T01:06:15;17.40;68.90
71994;DHT22;59861;50.268;8.648;2023-05-27T01:08:46;17.40;69.00
71994;DHT22;59861;50.268;8.648;2023-05-27T01:11:08;17.40;69.00
71994;DHT22;59861;50.268;8.648;2023-05-27T01:13:41;17.30;68.90
71994;DHT22;59861;50.268;8.648;2023-05-27T01:16:13;17.40;69.00
71994;DHT22;59861;50.268;8.648;2023-05-27T01:18:42;17.30;69.00
71994;DHT22;59861;50.268;8.648;2023-05-27T01:21:13;17.30;68.90
71994;DHT22;59861;50.268;8.648;2023-05-27T01:23:41;17.30;69.00
71994;DHT22;59861;50.268;8.648;2023-05-27T01:26:08;17.30;68.90
71994;DHT22;59861;50.268;8.648;2023-05-27T01:28:35;17.30;68.90
71994;DHT22;59861;50.268;8.648;2023-05-27T01:31:19;17.30;68.90
71994;DHT22;59861;50.268;8.648;2023-05-27T01:34:06;17.30;68.90
71994;DHT22;59861;50.268;8.648;2023-05-27T01:36:31;17.30;68.90
71994;DHT22;59861;50.268;8.648;2023-05-27T01:38:58;17.30;68.90
71994;DHT22;59861;50.268;8.648;2023-05-27T01:41:25;17.30;68.80
71994;DHT22;59861;50.268;8.648;2023-05-27T01:43:52;17.30;68.90
71994;DHT22;59861;50.268;8.648;2023-05-27T01:46:20;17.30;68.90
71994;DHT22;59861;50.268;8.648;2023-05-27T01:48:46;17.30;68.80
71994;DHT22;59861;50.268;8.648;2023-05-27T01:51:13;17.30;68.80
71994;DHT22;59861;50.268;8.648;2023-05-27T01:53:41;17.30;68.90
71994;DHT22;59861;50.268;8.648;2023-05-27T01:56:07;17.30;68.90
71994;DHT22;59861;50.268;8.648;2023-05-27T01:58:34;17.30;68.80
71994;DHT22;59861;50.268;8.648;2023-05-27T02:01:01;17.30;68.80
71994;DHT22;59861;50.268;8.648;2023-05-27T02:03:28;17.30;68.80
71994;DHT22;59861;50.268;8.648;2023-05-27T02:05:54;17.30;68.90
71994;DHT22;59861;50.268;8.648;2023-05-27T02:08:21;17.30;68.80
71994;DHT22;59861;50.268;8.648;2023-05-27T02:10:48;17.30;68.90
71994;DHT22;59861;50.268;8.648;2023-05-27T02:13:15;17.30;68.80
71994;DHT22;59861;50.268;8.648;2023-05-27T02:15:42;17.30;68.80
71994;DHT22;59861;50.268;8.648;2023-05-27T02:18:09;17.30;68.80
71994;DHT22;59861;50.268;8.648;2023-05-27T02:20:35;17.30;68.80
71994;DHT22;59861;50.268;8.648;2023-05-27T02:23:04;17.30;68.80
71994;DHT22;59861;50.268;8.648;2023-05-27T02:25:30;17.20;68.70
71994;DHT22;59861;50.268;8.648;2023-05-27T02:27:58;17.20;68.70
71994;DHT22;59861;50.268;8.648;2023-05-27T02:30:27;17.20;68.70
71994;DHT22;59861;50.268;8.648;2023-05-27T02:32:54;17.20;68.80
71994;DHT22;59861;50.268;8.648;2023-05-27T02:35:20;17.20;68.60
71994;DHT22;59861;50.268;8.648;2023-05-27T02:37:47;17.20;68.60
71994;DHT22;59861;50.268;8.648;2023-05-27T02:40:24;17.20;68.60
71994;DHT22;59861;50.268;8.648;2023-05-27T02:42:51;17.20;68.70
71994;DHT22;59861;50.268;8.648;2023-05-27T02:45:18;17.20;68.70
71994;DHT22;59861;50.268;8.648;2023-05-27T02:47:45;17.20;68.60
71994;DHT22;59861;50.268;8.648;2023-05-27T02:50:12;17.20;68.70
71994;DHT22;59861;50.268;8.648;2023-05-27T02:52:38;17.20;68.60
71994;DHT22;59861;50.268;8.648;2023-05-27T02:55:06;17.20;68.60
71994;DHT22;59861;50.268;8.648;2023-05-27T02:57:33;17.20;68.60
71994;DHT22;59861;50.268;8.648;2023-05-27T03:00:00;17.20;68.60
71994;DHT22;59861;50.268;8.648;2023-05-27T03:02:26;17.20;68.50
71994;DHT22;59861;50.268;8.648;2023-05-27T03:04:53;17.20;68.60
71994;DHT22;59861;50.268;8.648;2023-05-27T03:07:21;17.20;68.60
71994;DHT22;59861;50.268;8.648;2023-05-27T03:09:48;17.20;68.50
71994;DHT22;59861;50.268;8.648;2023-05-27T03:12:14;17.20;68.50
71994;DHT22;59861;50.268;8.648;2023-05-27T03:14:41;17.20;68.50
71994;DHT22;59861;50.268;8.648;2023-05-27T03:17:08;17.20;68.50
71994;DHT22;59861;50.268;8.648;2023-05-27T03:19:35;17.20;68.50
71994;DHT22;59861;50.268;8.648;2023-05-27T03:22:02;17.20;68.50
71994;DHT22;59861;50.268;8.648;2023-05-27T03:24:28;17.20;68.40
71994;DHT22;59861;50.268;8.648;2023-05-27T03:26:55;17.20;68.40
71994;DHT22;59861;50.268;8.648;2023-05-27T03:29:22;17.20;68.50
71994;DHT22;59861;50.268;8.648;2023-05-27T03:31:49;17.20;68.50
71994;DHT22;59861;50.268;8.648;2023-05-27T03:34:16;17.20;68.40
71994;DHT22;59861;50.268;8.648;2023-05-27T03:36:42;17.20;68.40
71994;DHT22;59861;50.268;8.648;2023-05-27T03:39:11;17.20;68.40
71994;DHT22;59861;50.268;8.648;2023-05-27T03:41:38;17.20;68.40
71994;DHT22;59861;50.268;8.648;2023-05-27T03:44:05;17.20;68.40
71994;DHT22;59861;50.268;8.648;2023-05-27T03:46:32;17.20;68.40
71994;DHT22;59861;50.268;8.648;2023-05-27T03:48:59;17.20;68.30
71994;DHT22;59861;50.268;8.648;2023-05-27T03:51:26;17.20;68.30
71994;DHT22;59861;50.268;8.648;2023-05-27T03:53:53;17.20;68.30
71994;DHT22;59861;50.268;8.648;2023-05-27T03:56:20;17.20;68.30
71994;DHT22;59861;50.268;8.648;2023-05-27T03:58:47;17.10;68.30
71994;DHT22;59861;50.268;8.648;2023-05-27T04:01:14;17.10;68.20
71994;DHT22;59861;50.268;8.648;2023-05-27T04:03:42;17.10;68.20
71994;DHT22;59861;50.268;8.648;2023-05-27T04:06:09;17.10;68.20
71994;DHT22;59861;50.268;8.648;2023-05-27T04:08:36;17.10;68.10
71994;DHT22;59861;50.268;8.648;2023-05-27T04:11:05;17.10;68.20
71994;DHT22;59861;50.268;8.648;2023-05-27T04:13:31;17.10;68.30
71994;DHT22;59861;50.268;8.648;2023-05-27T04:15:58;17.10;68.20
71994;DHT22;59861;50.268;8.648;2023-05-27T04:18:25;17.10;68.30
71994;DHT22;59861;50.268;8.648;2023-05-27T04:20:52;17.10;68.10
71994;DHT22;59861;50.268;8.648;2023-05-27T04:23:19;17.10;68.20
71994;DHT22;59861;50.268;8.648;2023-05-27T04:25:46;17.10;68.10
71994;DHT22;59861;50.268;8.648;2023-05-27T04:28:14;17.10;68.10
71994;DHT22;59861;50.268;8.648;2023-05-27T04:30:41;17.10;68.10
71994;DHT22;59861;50.268;8.648;2023-05-27T04:33:08;17.10;68.10
71994;DHT22;59861;50.268;8.648;2023-05-27T04:35:37;17.10;68.10
71994;DHT22;59861;50.268;8.648;2023-05-27T04:38:05;17.10;68.10
71994;DHT22;59861;50.268;8.648;2023-05-27T04:40:33;17.10;68.00
71994;DHT22;59861;50.268;8.648;2023-05-27T04:43:01;17.10;68.10
71994;DHT22;59861;50.268;8.648;2023-05-27T04:45:28;17.10;68.10
71994;DHT22;59861;50.268;8.648;2023-05-27T04:47:55;17.10;68.10
71994;DHT22;59861;50.268;8.648;2023-05-27T04:50:23;17.10;68.00
71994;DHT22;59861;50.268;8.648;2023-05-27T04:52:50;17.10;68.00
71994;DHT22;59861;50.268;8.648;2023-05-27T04:55:18;17.10;68.00
71994;DHT22;59861;50.268;8.648;2023-05-27T04:57:46;17.10;67.80
71994;DHT22;59861;50.268;8.648;2023-05-27T05:00:13;17.10;67.80
71994;DHT22;59861;50.268;8.648;2023-05-27T05:02:41;17.10;68.00
71994;DHT22;59861;50.268;8.648;2023-05-27T05:05:08;17.10;67.80
71994;DHT22;59861;50.268;8.648;2023-05-27T05:07:37;17.10;67.90
71994;DHT22;59861;50.268;8.648;2023-05-27T05:10:05;17.10;67.80
71994;DHT22;59861;50.268;8.648;2023-05-27T05:12:33;17.10;67.80
71994;DHT22;59861;50.268;8.648;2023-05-27T05:15:01;17.10;67.80
71994;DHT22;59861;50.268;8.648;2023-05-27T05:17:28;17.10;67.70
71994;DHT22;59861;50.268;8.648;2023-05-27T05:19:55;17.10;67.80
71994;DHT22;59861;50.268;8.648;2023-05-27T05:22:22;17.10;67.70
71994;DHT22;59861;50.268;8.648;2023-05-27T05:24:49;17.10;67.70
71994;DHT22;59861;50.268;8.648;2023-05-27T05:27:16;17.10;67.70
71994;DHT22;59861;50.268;8.648;2023-05-27T05:29:43;17.10;67.70
71994;DHT22;59861;50.268;8.648;2023-05-27T05:32:10;17.10;67.70
71994;DHT22;59861;50.268;8.648;2023-05-27T05:34:37;17.10;67.70
71994;DHT22;59861;50.268;8.648;2023-05-27T05:37:04;17.10;67.60
71994;DHT22;59861;50.268;8.648;2023-05-27T05:39:32;17.10;67.60
71994;DHT22;59861;50.268;8.648;2023-05-27T05:41:59;17.10;67.50
71994;DHT22;59861;50.268;8.648;2023-05-27T05:44:25;17.10;67.40
71994;DHT22;59861;50.268;8.648;2023-05-27T05:46:52;17.10;67.40
71994;DHT22;59861;50.268;8.648;2023-05-27T05:49:19;17.10;67.40
71994;DHT22;59861;50.268;8.648;2023-05-27T05:51:46;17.10;67.50
71994;DHT22;59861;50.268;8.648;2023-05-27T05:54:13;17.10;67.50
71994;DHT22;59861;50.268;8.648;2023-05-27T05:56:40;17.10;67.50
71994;DHT22;59861;50.268;8.648;2023-05-27T05:59:06;17.10;68.50
71994;DHT22;59861;50.268;8.648;2023-05-27T06:01:33;17.10;67.40
71994;DHT22;59861;50.268;8.648;2023-05-27T06:04:00;17.20;67.60
71994;DHT22;59861;50.268;8.648;2023-05-27T06:06:28;17.10;67.40
71994;DHT22;59861;50.268;8.648;2023-05-27T06:08:55;17.10;67.40
71994;DHT22;59861;50.268;8.648;2023-05-27T06:11:22;17.10;67.40
71994;DHT22;59861;50.268;8.648;2023-05-27T06:13:49;17.10;58.40
71994;DHT22;59861;50.268;8.648;2023-05-27T06:16:16;16.90;56.40
71994;DHT22;59861;50.268;8.648;2023-05-27T06:18:42;16.80;55.50
71994;DHT22;59861;50.268;8.648;2023-05-27T06:21:11;16.70;55.40
71994;DHT22;59861;50.268;8.648;2023-05-27T06:23:38;16.80;56.90
71994;DHT22;59861;50.268;8.648;2023-05-27T06:26:05;16.80;54.70
71994;DHT22;59861;50.268;8.648;2023-05-27T06:28:32;16.80;57.70
71994;DHT22;59861;50.268;8.648;2023-05-27T06:30:58;16.80;55.70
71994;DHT22;59861;50.268;8.648;2023-05-27T06:33:25;16.80;55.50
71994;DHT22;59861;50.268;8.648;2023-05-27T06:35:52;16.80;53.10
71994;DHT22;59861;50.268;8.648;2023-05-27T06:38:19;16.80;54.90
71994;DHT22;59861;50.268;8.648;2023-05-27T06:40:46;16.80;54.70
71994;DHT22;59861;50.268;8.648;2023-05-27T06:43:13;16.80;53.60
71994;DHT22;59861;50.268;8.648;2023-05-27T06:45:39;16.80;54.30
71994;DHT22;59861;50.268;8.648;2023-05-27T06:48:06;16.80;54.40
71994;DHT22;59861;50.268;8.648;2023-05-27T06:50:33;16.80;56.30
71994;DHT22;59861;50.268;8.648;2023-05-27T06:53:00;16.90;55.90
71994;DHT22;59861;50.268;8.648;2023-05-27T06:55:27;17.00;59.60
71994;DHT22;59861;50.268;8.648;2023-05-27T06:57:54;17.10;59.10
71994;DHT22;59861;50.268;8.648;2023-05-27T07:00:20;17.20;59.20
71994;DHT22;59861;50.268;8.648;2023-05-27T07:02:47;17.20;59.60
71994;DHT22;59861;50.268;8.648;2023-05-27T07:05:14;17.20;59.90
71994;DHT22;59861;50.268;8.648;2023-05-27T07:07:41;17.20;60.00
71994;DHT22;59861;50.268;8.648;2023-05-27T07:10:08;17.20;60.30
71994;DHT22;59861;50.268;8.648;2023-05-27T07:12:34;17.20;60.40
71994;DHT22;59861;50.268;8.648;2023-05-27T07:15:01;17.20;60.70
71994;DHT22;59861;50.268;8.648;2023-05-27T07:17:28;17.20;60.90
71994;DHT22;59861;50.268;8.648;2023-05-27T07:19:55;17.20;60.90
71994;DHT22;59861;50.268;8.648;2023-05-27T07:22:22;17.20;61.00
71994;DHT22;59861;50.268;8.648;2023-05-27T07:24:49;17.20;61.20
71994;DHT22;59861;50.268;8.648;2023-05-27T07:27:16;17.20;61.30
71994;DHT22;59861;50.268;8.648;2023-05-27T07:29:43;17.20;61.40
71994;DHT22;59861;50.268;8.648;2023-05-27T07:32:10;17.20;61.50
71994;DHT22;59861;50.268;8.648;2023-05-27T07:34:37;17.20;61.60
71994;DHT22;59861;50.268;8.648;2023-05-27T07:37:03;17.20;61.70
71994;DHT22;59861;50.268;8.648;2023-05-27T07:39:30;17.20;61.00
71994;DHT22;59861;50.268;8.648;2023-05-27T07:41:57;17.20;62.00
71994;DHT22;59861;50.268;8.648;2023-05-27T07:44:24;17.20;62.10
71994;DHT22;59861;50.268;8.648;2023-05-27T07:46:52;17.20;62.10
71994;DHT22;59861;50.268;8.648;2023-05-27T07:49:19;17.20;62.30
71994;DHT22;59861;50.268;8.648;2023-05-27T07:51:46;17.20;62.30
71994;DHT22;59861;50.268;8.648;2023-05-27T07:54:13;17.20;62.50
71994;DHT22;59861;50.268;8.648;2023-05-27T07:56:40;17.20;62.60
71994;DHT22;59861;50.268;8.648;2023-05-27T07:59:07;17.20;63.60
71994;DHT22;59861;50.268;8.648;2023-05-27T08:01:34;17.20;62.80
71994;DHT22;59861;50.268;8.648;2023-05-27T08:04:00;17.20;62.80
71994;DHT22;59861;50.268;8.648;2023-05-27T08:06:27;17.20;63.60
71994;DHT22;59861;50.268;8.648;2023-05-27T08:08:54;17.30;63.10
71994;DHT22;59861;50.268;8.648;2023-05-27T08:11:21;17.20;63.00
71994;DHT22;59861;50.268;8.648;2023-05-27T08:13:48;17.30;63.10
71994;DHT22;59861;50.268;8.648;2023-05-27T08:16:14;17.20;63.20
71994;DHT22;59861;50.268;8.648;2023-05-27T08:18:41;17.30;63.40
71994;DHT22;59861;50.268;8.648;2023-05-27T08:21:08;17.20;63.30
71994;DHT22;59861;50.268;8.648;2023-05-27T08:23:35;17.30;63.50
71994;DHT22;59861;50.268;8.648;2023-05-27T08:26:02;17.30;63.50
71994;DHT22;59861;50.268;8.648;2023-05-27T08:28:28;17.30;63.60
71994;DHT22;59861;50.268;8.648;2023-05-27T08:30:55;17.30;63.60
71994;DHT22;59861;50.268;8.648;2023-05-27T08:33:22;17.20;63.60
71994;DHT22;59861;50.268;8.648;2023-05-27T08:35:49;17.30;63.80
71994;DHT22;59861;50.268;8.648;2023-05-27T08:38:16;17.30;63.90
71994;DHT22;59861;50.268;8.648;2023-05-27T08:40:43;17.20;63.80
71994;DHT22;59861;50.268;8.648;2023-05-27T08:43:10;17.30;63.90
71994;DHT22;59861;50.268;8.648;2023-05-27T08:45:37;17.30;64.00
71994;DHT22;59861;50.268;8.648;2023-05-27T08:48:11;17.30;64.00
71994;DHT22;59861;50.268;8.648;2023-05-27T08:50:34;17.30;64.10
71994;DHT22;59861;50.268;8.648;2023-05-27T08:53:02;17.30;64.20
71994;DHT22;59861;50.268;8.648;2023-05-27T08:55:29;17.30;64.20
71994;DHT22;59861;50.268;8.648;2023-05-27T08:57:57;17.30;64.30
71994;DHT22;59861;50.268;8.648;2023-05-27T09:00:25;17.30;64.40
71994;DHT22;59861;50.268;8.648;2023-05-27T09:02:52;17.30;64.40
71994;DHT22;59861;50.268;8.648;2023-05-27T09:05:20;17.30;64.40
71994;DHT22;59861;50.268;8.648;2023-05-27T09:07:47;17.30;64.40
71994;DHT22;59861;50.268;8.648;2023-05-27T09:10:14;17.30;64.50
71994;DHT22;59861;50.268;8.648;2023-05-27T09:12:44;17.30;64.50
71994;DHT22;59861;50.268;8.648;2023-05-27T09:15:13;17.30;64.70
71994;DHT22;59861;50.268;8.648;2023-05-27T09:17:40;17.30;64.70
71994;DHT22;59861;50.268;8.648;2023-05-27T09:20:07;17.30;64.70
71994;DHT22;59861;50.268;8.648;2023-05-27T09:22:34;17.30;64.80
71994;DHT22;59861;50.268;8.648;2023-05-27T09:25:01;17.30;64.80
71994;DHT22;59861;50.268;8.648;2023-05-27T09:27:29;17.30;64.80
71994;DHT22;59861;50.268;8.648;2023-05-27T09:29:56;17.30;64.80
71994;DHT22;59861;50.268;8.648;2023-05-27T09:32:26;17.30;64.90
71994;DHT22;59861;50.268;8.648;2023-05-27T09:34:54;17.30;65.00
71994;DHT22;59861;50.268;8.648;2023-05-27T09:37:25;17.30;64.90
71994;DHT22;59861;50.268;8.648;2023-05-27T09:39:51;17.30;65.00
71994;DHT22;59861;50.268;8.648;2023-05-27T09:42:17;17.30;65.10
71994;DHT22;59861;50.268;8.648;2023-05-27T09:44:46;17.30;65.10
71994;DHT22;59861;50.268;8.648;2023-05-27T09:47:15;17.30;65.10
71994;DHT22;59861;50.268;8.648;2023-05-27T09:49:44;17.30;65.10
71994;DHT22;59861;50.268;8.648;2023-05-27T09:52:11;17.30;65.30
71994;DHT22;59861;50.268;8.648;2023-05-27T09:54:40;17.30;65.20
71994;DHT22;59861;50.268;8.648;2023-05-27T09:57:08;17.30;65.40
71994;DHT22;59861;50.268;8.648;2023-05-27T09:59:37;17.30;65.30
71994;DHT22;59861;50.268;8.648;2023-05-27T10:02:04;17.30;65.30
71994;DHT22;59861;50.268;8.648;2023-05-27T10:04:31;17.30;65.40
71994;DHT22;59861;50.268;8.648;2023-05-27T10:06:58;17.30;65.60
71994;DHT22;59861;50.268;8.648;2023-05-27T10:09:25;17.30;65.50
71994;DHT22;59861;50.268;8.648;2023-05-27T10:11:52;17.30;65.60
71994;DHT22;59861;50.268;8.648;2023-05-27T10:14:20;17.30;65.70
71994;DHT22;59861;50.268;8.648;2023-05-27T10:16:51;17.30;66.50
71994;DHT22;59861;50.268;8.648;2023-05-27T10:19:19;17.30;65.70
71994;DHT22;59861;50.268;8.648;2023-05-27T10:21:46;17.30;65.70
71994;DHT22;59861;50.268;8.648;2023-05-27T10:24:13;17.30;65.60
71994;DHT22;59861;50.268;8.648;2023-05-27T10:26:40;17.30;65.70
71994;DHT22;59861;50.268;8.648;2023-05-27T10:29:14;17.30;65.80
71994;DHT22;59861;50.268;8.648;2023-05-27T10:31:51;17.30;65.90
71994;DHT22;59861;50.268;8.648;2023-05-27T10:34:15;17.30;65.90
71994;DHT22;59861;50.268;8.648;2023-05-27T10:36:43;17.30;66.00
71994;DHT22;59861;50.268;8.648;2023-05-27T10:39:14;17.30;66.00
71994;DHT22;59861;50.268;8.648;2023-05-27T10:41:42;17.30;66.00
71994;DHT22;59861;50.268;8.648;2023-05-27T10:44:09;17.30;66.00
71994;DHT22;59861;50.268;8.648;2023-05-27T10:46:40;17.30;66.00
71994;DHT22;59861;50.268;8.648;2023-05-27T10:49:14;17.30;66.10
71994;DHT22;59861;50.268;8.648;2023-05-27T10:51:38;17.30;66.20
71994;DHT22;59861;50.268;8.648;2023-05-27T10:54:05;17.30;66.20
71994;DHT22;59861;50.268;8.648;2023-05-27T10:56:33;17.30;66.90
71994;DHT22;59861;50.268;8.648;2023-05-27T10:59:00;17.30;66.30
71994;DHT22;59861;50.268;8.648;2023-05-27T11:01:30;17.30;66.20
71994;DHT22;59861;50.268;8.648;2023-05-27T11:03:58;17.30;66.30
71994;DHT22;59861;50.268;8.648;2023-05-27T11:06:25;17.30;66.30
71994;DHT22;59861;50.268;8.648;2023-05-27T11:08:52;17.30;66.40
71994;DHT22;59861;50.268;8.648;2023-05-27T11:11:19;17.30;66.50
71994;DHT22;59861;50.268;8.648;2023-05-27T11:13:47;17.30;66.40
71994;DHT22;59861;50.268;8.648;2023-05-27T11:16:14;17.30;66.40
71994;DHT22;59861;50.268;8.648;2023-05-27T11:18:42;17.30;66.40
71994;DHT22;59861;50.268;8.648;2023-05-27T11:21:10;17.30;66.60
71994;DHT22;59861;50.268;8.648;2023-05-27T11:23:37;17.30;66.50
71994;DHT22;59861;50.268;8.648;2023-05-27T11:28:47;17.30;66.60
71994;DHT22;59861;50.268;8.648;2023-05-27T11:31:15;17.30;66.60
71994;DHT22;59861;50.268;8.648;2023-05-27T11:33:42;17.30;66.60
71994;DHT22;59861;50.268;8.648;2023-05-27T11:36:12;17.30;66.60
71994;DHT22;59861;50.268;8.648;2023-05-27T11:38:56;17.30;66.80
71994;DHT22;59861;50.268;8.648;2023-05-27T11:41:23;17.30;66.70
71994;DHT22;59861;50.268;8.648;2023-05-27T11:43:57;17.30;66.80
71994;DHT22;59861;50.268;8.648;2023-05-27T11:46:46;17.30;66.70
71994;DHT22;59861;50.268;8.648;2023-05-27T11:48:52;17.30;66.80
71994;DHT22;59861;50.268;8.648;2023-05-27T11:51:25;17.30;66.70
71994;DHT22;59861;50.268;8.648;2023-05-27T11:53:48;17.30;66.90
71994;DHT22;59861;50.268;8.648;2023-05-27T11:56:14;17.30;66.80
71994;DHT22;59861;50.268;8.648;2023-05-27T11:58:41;17.30;66.90
71994;DHT22;59861;50.268;8.648;2023-05-27T12:01:08;17.40;67.00
71994;DHT22;59861;50.268;8.648;2023-05-27T12:03:35;17.30;66.80
71994;DHT22;59861;50.268;8.648;2023-05-27T12:06:02;17.30;66.90
71994;DHT22;59861;50.268;8.648;2023-05-27T12:08:29;17.40;66.90
71994;DHT22;59861;50.268;8.648;2023-05-27T12:10:56;17.40;66.70
71994;DHT22;59861;50.268;8.648;2023-05-27T12:13:23;17.40;66.60
71994;DHT22;59861;50.268;8.648;2023-05-27T12:15:50;17.40;66.70
71994;DHT22;59861;50.268;8.648;2023-05-27T12:18:16;17.40;66.60
71994;DHT22;59861;50.268;8.648;2023-05-27T12:20:44;17.40;66.60
71994;DHT22;59861;50.268;8.648;2023-05-27T12:23:11;17.40;66.70
71994;DHT22;59861;50.268;8.648;2023-05-27T12:25:38;17.40;66.70
71994;DHT22;59861;50.268;8.648;2023-05-27T12:28:09;17.40;66.70
71994;DHT22;59861;50.268;8.648;2023-05-27T12:30:33;17.40;66.80
71994;DHT22;59861;50.268;8.648;2023-05-27T12:33:05;17.40;66.70
71994;DHT22;59861;50.268;8.648;2023-05-27T12:35:29;17.40;66.90
71994;DHT22;59861;50.268;8.648;2023-05-27T12:37:57;17.40;66.90
71994;DHT22;59861;50.268;8.648;2023-05-27T12:40:24;17.40;66.80
71994;DHT22;59861;50.268;8.648;2023-05-27T12:42:51;17.40;66.90
71994;DHT22;59861;50.268;8.648;2023-05-27T12:45:18;17.40;67.00
71994;DHT22;59861;50.268;8.648;2023-05-27T12:47:50;17.40;67.10
71994;DHT22;59861;50.268;8.648;2023-05-27T12:50:16;17.40;67.10
71994;DHT22;59861;50.268;8.648;2023-05-27T12:52:44;17.40;68.00
71994;DHT22;59861;50.268;8.648;2023-05-27T12:55:14;17.40;67.10
71994;DHT22;59861;50.268;8.648;2023-05-27T12:57:42;17.40;67.20
71994;DHT22;59861;50.268;8.648;2023-05-27T13:00:09;17.40;67.20
71994;DHT22;59861;50.268;8.648;2023-05-27T13:02:37;17.40;67.30
71994;DHT22;59861;50.268;8.648;2023-05-27T13:05:05;17.40;67.40
71994;DHT22;59861;50.268;8.648;2023-05-27T13:07:35;17.40;67.40
71994;DHT22;59861;50.268;8.648;2023-05-27T13:10:02;17.50;67.40
71994;DHT22;59861;50.268;8.648;2023-05-27T13:12:30;17.50;67.40
71994;DHT22;59861;50.268;8.648;2023-05-27T13:14:58;17.50;67.60
71994;DHT22;59861;50.268;8.648;2023-05-27T13:17:25;17.50;67.50
71994;DHT22;59861;50.268;8.648;2023-05-27T13:19:51;17.50;67.50
71994;DHT22;59861;50.268;8.648;2023-05-27T13:22:18;17.50;67.50
71994;DHT22;59861;50.268;8.648;2023-05-27T13:24:45;17.50;67.60
71994;DHT22;59861;50.268;8.648;2023-05-27T13:27:12;17.50;67.60
71994;DHT22;59861;50.268;8.648;2023-05-27T13:29:40;17.50;67.60
71994;DHT22;59861;50.268;8.648;2023-05-27T13:32:06;17.50;67.70
71994;DHT22;59861;50.268;8.648;2023-05-27T13:34:34;17.50;67.70
71994;DHT22;59861;50.268;8.648;2023-05-27T13:37:01;17.50;67.80
71994;DHT22;59861;50.268;8.648;2023-05-27T13:39:29;17.50;67.80
71994;DHT22;59861;50.268;8.648;2023-05-27T13:41:56;17.50;68.50
71994;DHT22;59861;50.268;8.648;2023-05-27T13:44:23;17.50;68.00
71994;DHT22;59861;50.268;8.648;2023-05-27T13:46:50;17.50;67.90
71994;DHT22;59861;50.268;8.648;2023-05-27T13:49:17;17.50;68.00
71994;DHT22;59861;50.268;8.648;2023-05-27T13:51:44;17.50;68.00
71994;DHT22;59861;50.268;8.648;2023-05-27T13:54:11;17.50;67.90
71994;DHT22;59861;50.268;8.648;2023-05-27T13:56:38;17.50;68.00
71994;DHT22;59861;50.268;8.648;2023-05-27T13:59:05;17.50;68.00
71994;DHT22;59861;50.268;8.648;2023-05-27T14:01:33;17.50;67.90
71994;DHT22;59861;50.268;8.648;2023-05-27T14:04:00;17.50;67.70
71994;DHT22;59861;50.268;8.648;2023-05-27T14:06:27;17.50;67.70
71994;DHT22;59861;50.268;8.648;2023-05-27T14:08:54;17.50;67.70
71994;DHT22;59861;50.268;8.648;2023-05-27T14:11:21;17.50;67.30
71994;DHT22;59861;50.268;8.648;2023-05-27T14:13:48;17.50;67.20
71994;DHT22;59861;50.268;8.648;2023-05-27T14:16:16;17.50;67.30
71994;DHT22;59861;50.268;8.648;2023-05-27T14:18:43;17.50;67.20
71994;DHT22;59861;50.268;8.648;2023-05-27T14:21:10;17.60;67.20
71994;DHT22;59861;50.268;8.648;2023-05-27T14:23:37;17.60;66.90
71994;DHT22;59861;50.268;8.648;2023-05-27T14:26:04;17.50;66.90
71994;DHT22;59861;50.268;8.648;2023-05-27T14:28:31;17.50;66.80
71994;DHT22;59861;50.268;8.648;2023-05-27T14:30:58;17.50;66.80
71994;DHT22;59861;50.268;8.648;2023-05-27T14:33:25;17.50;67.10
71994;DHT22;59861;50.268;8.648;2023-05-27T14:35:52;17.50;66.90
71994;DHT22;59861;50.268;8.648;2023-05-27T14:38:19;17.50;67.00
71994;DHT22;59861;50.268;8.648;2023-05-27T14:40:46;17.50;67.00
71994;DHT22;59861;50.268;8.648;2023-05-27T14:43:15;17.50;67.10
71994;DHT22;59861;50.268;8.648;2023-05-27T14:45:42;17.50;67.10
71994;DHT22;59861;50.268;8.648;2023-05-27T14:48:09;17.50;67.20
71994;DHT22;59861;50.268;8.648;2023-05-27T14:50:36;17.50;67.20
71994;DHT22;59861;50.268;8.648;2023-05-27T14:53:03;17.50;68.30
71994;DHT22;59861;50.268;8.648;2023-05-27T14:55:30;17.50;67.40
71994;DHT22;59861;50.268;8.648;2023-05-27T14:57:57;17.50;67.50
71994;DHT22;59861;50.268;8.648;2023-05-27T15:00:24;17.50;67.40
71994;DHT22;59861;50.268;8.648;2023-05-27T15:02:51;17.50;67.50
71994;DHT22;59861;50.268;8.648;2023-05-27T15:05:19;17.60;67.60
71994;DHT22;59861;50.268;8.648;2023-05-27T15:07:46;17.60;67.60
71994;DHT22;59861;50.268;8.648;2023-05-27T15:10:13;17.50;67.50
71994;DHT22;59861;50.268;8.648;2023-05-27T15:12:40;17.60;67.60
71994;DHT22;59861;50.268;8.648;2023-05-27T15:15:08;17.60;67.60
71994;DHT22;59861;50.268;8.648;2023-05-27T15:17:36;17.60;66.90
71994;DHT22;59861;50.268;8.648;2023-05-27T15:20:03;17.60;67.70
71994;DHT22;59861;50.268;8.648;2023-05-27T15:22:30;17.50;67.70
71994;DHT22;59861;50.268;8.648;2023-05-27T15:24:57;17.60;67.70
71994;DHT22;59861;50.268;8.648;2023-05-27T15:27:24;17.60;67.70
71994;DHT22;59861;50.268;8.648;2023-05-27T15:29:50;17.60;67.70
71994;DHT22;59861;50.268;8.648;2023-05-27T15:32:17;17.60;67.80
71994;DHT22;59861;50.268;8.648;2023-05-27T15:34:44;17.60;67.70